Time;durP1;ratioP1;P1;durP2;ratioP2;P2;SDS_P1;SDS_P2;PMS_P1;PMS_P2;Temp;Humidity;BMP_temperature;BMP_pressure;BME280_temperature;BME280_humidity;BME280_pressure;Samples;Min_cycle;Max_cycle;Signal;HPM_P1;HPM_P2
2021/06/05 00:01:01;;;;;;;122.67;73.47;;;19.90;99.90;;;;;;6121121;23;20153;-87
2021/06/05 00:03:27;;;;;;;114.17;74.00;;;19.90;99.90;;;;;;6120336;23;20164;-86
2021/06/05 00:05:58;;;;;;;117.63;73.83;;;20.10;99.90;;;;;;6120720;23;20170;-86
2021/06/05 00:08:26;;;;;;;114.10;71.53;;;20.10;99.90;;;;;;6121206;23;20150;-86
2021/06/05 00:10:55;;;;;;;124.97;78.47;;;19.90;99.90;;;;;;6122000;23;20173;-86
2021/06/05 00:13:27;;;;;;;124.87;77.23;;;19.90;99.90;;;;;;6121780;23;20157;-85
2021/06/05 00:15:53;;;;;;;132.63;78.27;;;19.80;99.90;;;;;;6121922;23;20229;-87
2021/06/05 00:18:19;;;;;;;130.63;82.27;;;19.70;99.90;;;;;;6121607;23;20224;-87
2021/06/05 00:20:45;;;;;;;126.57;80.10;;;19.60;99.90;;;;;;6122421;23;20158;-87
2021/06/05 00:23:13;;;;;;;129.80;79.97;;;19.50;99.90;;;;;;6122101;23;20156;-86
2021/06/05 00:25:41;;;;;;;132.40;79.93;;;19.50;99.90;;;;;;6122043;23;20157;-86
2021/06/05 00:28:07;;;;;;;132.63;81.07;;;19.40;99.90;;;;;;6121995;23;20243;-87
2021/06/05 00:30:33;;;;;;;132.00;81.10;;;19.40;99.90;;;;;;6121796;23;20145;-86
2021/06/05 00:32:59;;;;;;;132.57;82.77;;;19.40;99.90;;;;;;6122322;23;20161;-87
2021/06/05 00:35:27;;;;;;;130.13;81.37;;;19.40;99.90;;;;;;6121990;23;20570;-86
2021/06/05 00:37:53;;;;;;;120.97;75.33;;;19.40;99.90;;;;;;6121956;23;20161;-87
2021/06/05 00:40:22;;;;;;;122.20;75.33;;;19.50;99.90;;;;;;6121862;23;20757;-87
2021/06/05 00:42:48;;;;;;;121.33;78.67;;;19.50;99.90;;;;;;6122182;23;20167;-86
2021/06/05 00:45:16;;;;;;;125.90;74.83;;;19.50;99.90;;;;;;6121513;23;20160;-86
2021/06/05 00:47:43;;;;;;;119.50;73.50;;;19.40;99.90;;;;;;6122001;23;20171;-86
2021/06/05 00:50:11;;;;;;;120.20;73.47;;;19.40;99.90;;;;;;6122269;23;20153;-87
2021/06/05 00:52:39;;;;;;;119.97;73.93;;;19.40;99.90;;;;;;6123167;23;20482;-86
2021/06/05 00:55:06;;;;;;;115.50;71.93;;;19.40;99.90;;;;;;6122869;23;20311;-87
2021/06/05 00:57:32;;;;;;;117.63;73.07;;;19.30;99.90;;;;;;6123487;23;20154;-87
2021/06/05 00:59:57;;;;;;;114.23;72.40;;;19.40;99.90;;;;;;6122747;23;20523;-86
2021/06/05 01:02:23;;;;;;;116.33;73.87;;;19.20;99.90;;;;;;6123356;23;20203;-87
2021/06/05 01:04:49;;;;;;;119.07;72.57;;;19.20;99.90;;;;;;6122868;23;20461;-87
2021/06/05 01:07:22;;;;;;;121.77;71.20;;;19.30;99.90;;;;;;6122045;23;20172;-86
2021/06/05 01:10:06;;;;;;;124.63;73.57;;;19.40;99.90;;;;;;6121455;23;20166;-87
2021/06/05 01:12:58;;;;;;;118.70;69.63;;;19.30;99.90;;;;;;6121977;23;20527;-87
2021/06/05 01:15:31;;;;;;;120.10;72.47;;;19.40;99.90;;;;;;6122300;23;20185;-87
2021/06/05 01:18:09;;;;;;;117.63;71.37;;;19.50;99.90;;;;;;6122153;23;20197;-87
2021/06/05 01:20:58;;;;;;;111.27;67.87;;;19.60;99.90;;;;;;6121165;23;20161;-87
2021/06/05 01:23:54;;;;;;;112.00;65.93;;;19.70;99.90;;;;;;6121747;23;20572;-86
2021/06/05 01:26:31;;;;;;;122.93;68.93;;;19.80;99.90;;;;;;6121840;23;20174;-87
2021/06/05 01:29:11;;;;;;;108.57;67.20;;;19.80;99.90;;;;;;6121622;23;20184;-87
2021/06/05 01:31:43;;;;;;;111.97;68.90;;;19.70;99.90;;;;;;6122029;23;20211;-87
2021/06/05 01:34:09;;;;;;;109.23;66.47;;;19.70;99.90;;;;;;6121904;23;20234;-87
2021/06/05 01:36:39;;;;;;;117.27;69.57;;;19.70;99.90;;;;;;6122226;23;20154;-87
2021/06/05 01:39:08;;;;;;;111.67;68.33;;;19.90;99.90;;;;;;6121599;23;20220;-86
2021/06/05 01:41:37;;;;;;;109.53;67.73;;;19.80;99.90;;;;;;6121437;23;20240;-87
2021/06/05 01:44:05;;;;;;;116.30;68.70;;;19.90;99.90;;;;;;6121769;23;20241;-87
2021/06/05 01:46:34;;;;;;;109.87;66.03;;;19.80;99.90;;;;;;6121648;23;20151;-87
2021/06/05 01:49:00;;;;;;;109.87;64.07;;;19.70;99.90;;;;;;6121394;23;20150;-86
2021/06/05 01:51:27;;;;;;;118.83;63.13;;;19.90;99.90;;;;;;6121566;23;20154;-87
2021/06/05 01:53:58;;;;;;;134.20;64.67;;;19.80;99.90;;;;;;6121924;23;20245;-85
2021/06/05 01:56:33;;;;;;;152.33;66.33;;;19.60;99.90;;;;;;6121409;23;20154;-86
2021/06/05 01:59:00;;;;;;;154.90;67.23;;;19.40;99.90;;;;;;6121148;23;20200;-87
2021/06/05 02:01:26;;;;;;;157.87;70.30;;;19.20;99.90;;;;;;6121757;23;20199;-87
2021/06/05 02:03:53;;;;;;;174.90;71.70;;;19.10;99.90;;;;;;6121539;23;20161;-87
2021/06/05 02:06:20;;;;;;;173.80;71.10;;;19.00;99.90;;;;;;6121272;23;20359;-87
2021/06/05 02:08:46;;;;;;;178.17;72.67;;;19.00;99.90;;;;;;6121698;23;20475;-87
2021/06/05 02:11:16;;;;;;;185.33;75.03;;;19.00;99.90;;;;;;6121906;23;20180;-87
2021/06/05 02:13:54;;;;;;;191.20;73.03;;;18.70;99.90;;;;;;6121505;23;20160;-87
2021/06/05 02:16:29;;;;;;;196.63;74.93;;;18.50;99.90;;;;;;6121808;23;20151;-87
2021/06/05 02:19:00;;;;;;;187.83;75.40;;;18.40;99.90;;;;;;6121621;23;20183;-86
2021/06/05 02:21:29;;;;;;;203.60;76.57;;;18.30;99.90;;;;;;6121538;23;20648;-87
2021/06/05 02:24:01;;;;;;;187.93;74.43;;;18.30;99.90;;;;;;6122114;23;20474;-86
2021/06/05 02:26:28;;;;;;;200.93;77.00;;;18.30;99.90;;;;;;6121551;23;20148;-86
2021/06/05 02:28:58;;;;;;;193.43;79.33;;;18.20;99.90;;;;;;6121422;23;20180;-86
2021/06/05 02:31:29;;;;;;;175.60;76.37;;;18.20;99.90;;;;;;6121959;23;20150;-86
2021/06/05 02:33:57;;;;;;;191.97;76.23;;;18.00;99.90;;;;;;6121472;23;20235;-86
2021/06/05 02:36:23;;;;;;;195.20;79.50;;;17.80;99.90;;;;;;6121697;23;20155;-86
2021/06/05 02:38:50;;;;;;;196.87;81.47;;;17.70;99.90;;;;;;6121487;23;20192;-86
2021/06/05 02:41:18;;;;;;;187.30;78.07;;;17.70;99.90;;;;;;6121190;23;20146;-86
2021/06/05 02:43:45;;;;;;;181.93;77.47;;;17.70;99.90;;;;;;6121450;23;20155;-86
2021/06/05 02:46:18;;;;;;;178.33;77.03;;;17.80;99.90;;;;;;6121378;23;20155;-86
2021/06/05 02:49:05;;;;;;;172.80;74.13;;;17.90;99.90;;;;;;6121593;23;20194;-86
2021/06/05 02:51:41;;;;;;;180.87;75.43;;;17.90;99.90;;;;;;6121364;23;20491;-86
2021/06/05 02:54:08;;;;;;;186.27;76.37;;;17.80;99.90;;;;;;6121583;23;20235;-86
2021/06/05 02:56:33;;;;;;;171.27;73.70;;;17.80;99.90;;;;;;6121264;23;20146;-86
2021/06/05 02:58:59;;;;;;;175.13;73.90;;;17.70;99.90;;;;;;6121286;23;20318;-86
2021/06/05 03:01:25;;;;;;;174.07;74.57;;;17.70;99.90;;;;;;6121457;23;20170;-87
2021/06/05 03:03:52;;;;;;;157.60;71.93;;;17.80;99.90;;;;;;6121305;23;20152;-86
2021/06/05 03:06:18;;;;;;;151.33;68.37;;;17.90;99.90;;;;;;6121666;23;20184;-86
2021/06/05 03:08:45;;;;;;;148.83;69.97;;;18.10;99.90;;;;;;6121566;23;20147;-86
2021/06/05 03:11:15;;;;;;;158.00;73.00;;;18.00;99.90;;;;;;6121079;23;20600;-86
2021/06/05 03:13:40;;;;;;;156.80;71.57;;;17.80;99.90;;;;;;6121480;23;20144;-87
2021/06/05 03:16:07;;;;;;;163.27;74.23;;;17.50;99.90;;;;;;6121335;23;20166;-86
2021/06/05 03:18:34;;;;;;;163.47;74.70;;;17.50;99.90;;;;;;6120634;23;20186;-87
2021/06/05 03:21:00;;;;;;;163.03;72.17;;;17.20;99.90;;;;;;6121797;23;20166;-86
2021/06/05 03:23:29;;;;;;;161.03;71.83;;;17.30;99.90;;;;;;6121383;23;20146;-86
2021/06/05 03:25:55;;;;;;;157.90;72.80;;;17.30;99.90;;;;;;6120990;23;20154;-86
2021/06/05 03:28:23;;;;;;;167.67;72.40;;;17.50;99.90;;;;;;6120980;23;20182;-86
2021/06/05 03:30:51;;;;;;;153.23;68.77;;;17.60;99.90;;;;;;6122196;23;20170;-92
2021/06/05 03:33:21;;;;;;;150.67;69.03;;;17.70;99.90;;;;;;6121939;23;20234;-94
2021/06/05 03:35:47;;;;;;;145.80;66.50;;;17.80;99.90;;;;;;6122148;23;20205;-88
2021/06/05 03:38:13;;;;;;;145.60;67.50;;;17.80;99.90;;;;;;6121676;23;20148;-92
2021/06/05 03:40:39;;;;;;;142.80;67.87;;;17.90;99.90;;;;;;6121890;23;20167;-94
2021/06/05 03:43:06;;;;;;;126.47;63.80;;;18.00;99.90;;;;;;6122069;23;20152;-93
2021/06/05 03:45:32;;;;;;;108.77;59.17;;;17.90;99.90;;;;;;6124123;23;20159;-87
2021/06/05 03:47:59;;;;;;;109.63;58.43;;;17.80;99.90;;;;;;6122311;23;20149;-86
2021/06/05 03:50:29;;;;;;;121.63;61.97;;;17.60;99.90;;;;;;6122247;23;20162;-87
2021/06/05 03:52:55;;;;;;;113.83;60.50;;;17.60;99.90;;;;;;6122347;23;20159;-86
2021/06/05 03:55:21;;;;;;;115.27;60.27;;;17.60;99.90;;;;;;6122034;23;20152;-87
2021/06/05 03:57:46;;;;;;;119.87;57.60;;;17.70;99.90;;;;;;6122367;23;20147;-86
2021/06/05 04:00:17;;;;;;;110.70;58.67;;;17.70;99.90;;;;;;6122319;23;20193;-86
2021/06/05 04:02:43;;;;;;;113.90;57.80;;;17.70;99.90;;;;;;6122286;23;20179;-86
2021/06/05 04:05:11;;;;;;;102.90;57.50;;;17.70;99.90;;;;;;6121804;23;20583;-86
2021/06/05 04:07:37;;;;;;;102.60;56.03;;;17.60;99.90;;;;;;6122474;23;20157;-86
2021/06/05 04:10:06;;;;;;;125.33;60.47;;;17.60;99.90;;;;;;6121526;23;20165;-86
2021/06/05 04:12:32;;;;;;;137.90;63.83;;;17.50;99.90;;;;;;6122450;23;20161;-86
2021/06/05 04:14:58;;;;;;;153.73;64.80;;;17.60;99.90;;;;;;6122384;23;20154;-87
2021/06/05 04:17:24;;;;;;;158.60;65.10;;;17.50;99.90;;;;;;6122499;23;20157;-87
2021/06/05 04:19:49;;;;;;;154.77;67.57;;;17.50;99.90;;;;;;6122145;23;20183;-87
2021/06/05 04:22:16;;;;;;;143.77;67.30;;;17.50;99.90;;;;;;6122042;23;20475;-86
2021/06/05 04:24:41;;;;;;;147.47;64.90;;;17.60;99.90;;;;;;6122327;23;20147;-86
2021/06/05 04:27:08;;;;;;;163.43;66.90;;;17.70;99.90;;;;;;6122587;23;20192;-86
2021/06/05 04:29:34;;;;;;;140.37;65.37;;;17.70;99.90;;;;;;6122227;23;20466;-87
2021/06/05 04:32:00;;;;;;;138.33;63.93;;;17.70;99.90;;;;;;6122326;23;20626;-86
2021/06/05 04:34:26;;;;;;;137.10;63.03;;;17.70;99.90;;;;;;6122082;23;20524;-86
2021/06/05 04:36:52;;;;;;;138.97;63.90;;;17.70;99.90;;;;;;6121370;23;20152;-87
2021/06/05 04:39:18;;;;;;;126.53;63.27;;;17.70;99.90;;;;;;6122163;23;20193;-87
2021/06/05 04:41:44;;;;;;;120.53;61.53;;;17.60;99.90;;;;;;6122240;23;20200;-87
2021/06/05 04:44:10;;;;;;;114.50;57.03;;;17.50;99.90;;;;;;6121880;23;20162;-87
2021/06/05 04:46:36;;;;;;;119.23;59.77;;;17.40;99.90;;;;;;6122358;23;20526;-87
2021/06/05 04:49:02;;;;;;;109.00;58.57;;;17.40;99.90;;;;;;6121690;23;20155;-86
2021/06/05 04:51:29;;;;;;;109.73;58.37;;;17.30;99.90;;;;;;6121991;23;20151;-86
2021/06/05 04:53:55;;;;;;;103.90;55.23;;;17.40;99.90;;;;;;6121645;23;20154;-87
2021/06/05 04:56:43;;;;;;;104.77;56.00;;;17.40;99.90;;;;;;6121743;23;20179;-87
2021/06/05 04:59:10;;;;;;;90.07;53.17;;;17.40;99.90;;;;;;6121998;23;20193;-86
2021/06/05 05:01:37;;;;;;;93.77;53.37;;;17.30;99.90;;;;;;6122221;23;20148;-87
2021/06/05 05:04:03;;;;;;;81.67;51.23;;;17.40;99.90;;;;;;6122396;23;20254;-87
2021/06/05 05:06:29;;;;;;;83.77;52.27;;;17.50;99.90;;;;;;6121144;23;20533;-86
2021/06/05 05:08:55;;;;;;;78.90;49.57;;;17.40;99.90;;;;;;6121690;23;20169;-86
2021/06/05 05:11:21;;;;;;;83.60;49.40;;;17.40;99.90;;;;;;6121591;23;20173;-86
2021/06/05 05:13:47;;;;;;;78.20;49.83;;;17.50;99.90;;;;;;6122083;23;20148;-86
2021/06/05 05:16:13;;;;;;;74.87;48.30;;;17.50;99.90;;;;;;6121638;23;20152;-86
2021/06/05 05:18:42;;;;;;;78.80;48.00;;;17.70;99.90;;;;;;6121118;23;20254;-86
2021/06/05 05:21:08;;;;;;;77.50;48.30;;;17.70;99.90;;;;;;6120304;23;20159;-86
2021/06/05 05:23:33;;;;;;;75.63;48.80;;;17.60;99.90;;;;;;6121040;23;20153;-87
2021/06/05 05:26:03;;;;;;;69.17;46.90;;;17.50;99.90;;;;;;6121932;23;20527;-86
2021/06/05 05:28:29;;;;;;;73.50;48.30;;;17.40;99.90;;;;;;6121958;23;20158;-86
2021/06/05 05:30:57;;;;;;;68.17;45.70;;;17.40;99.90;;;;;;6121653;23;20454;-86
2021/06/05 05:33:24;;;;;;;71.67;46.63;;;17.40;99.90;;;;;;6122042;23;20150;-86
2021/06/05 05:35:54;;;;;;;70.30;47.23;;;17.40;99.90;;;;;;6121335;23;20156;-86
2021/06/05 05:38:22;;;;;;;72.30;46.47;;;17.30;99.90;;;;;;6120142;23;20146;-86
2021/06/05 05:40:49;;;;;;;73.33;47.03;;;17.30;99.90;;;;;;6119304;23;20170;-86
2021/06/05 05:43:15;;;;;;;70.10;45.60;;;17.40;99.90;;;;;;6121148;23;20143;-86
2021/06/05 05:45:40;;;;;;;68.43;45.50;;;17.50;99.90;;;;;;6121919;23;20156;-86
2021/06/05 05:48:09;;;;;;;68.40;45.33;;;17.50;99.90;;;;;;6122128;23;20625;-86
2021/06/05 05:50:37;;;;;;;72.20;45.73;;;17.50;99.90;;;;;;6121003;23;20569;-86
2021/06/05 05:53:03;;;;;;;80.13;48.37;;;17.50;99.90;;;;;;6122007;23;20600;-86
2021/06/05 05:55:29;;;;;;;66.47;44.87;;;17.60;99.90;;;;;;6121489;23;20159;-86
2021/06/05 05:57:55;;;;;;;68.17;47.23;;;17.60;99.90;;;;;;6121698;23;20636;-86
2021/06/05 06:00:29;;;;;;;74.93;46.90;;;17.60;99.90;;;;;;6121584;23;20696;-86
2021/06/05 06:02:55;;;;;;;71.50;44.83;;;17.50;99.90;;;;;;6121929;23;20145;-86
2021/06/05 06:05:21;;;;;;;67.30;45.50;;;17.50;99.90;;;;;;6121311;23;20156;-86
2021/06/05 06:07:46;;;;;;;73.07;44.27;;;17.40;99.90;;;;;;6121605;23;20161;-86
2021/06/05 06:10:15;;;;;;;71.07;46.03;;;17.50;99.90;;;;;;6121396;23;20493;-86
2021/06/05 06:12:41;;;;;;;73.93;45.00;;;17.50;99.90;;;;;;6121902;23;20155;-86
2021/06/05 06:15:14;;;;;;;72.27;45.47;;;17.40;99.90;;;;;;6121928;23;20153;-86
2021/06/05 06:17:41;;;;;;;82.00;47.53;;;17.20;99.90;;;;;;6121758;23;20156;-86
2021/06/05 06:20:10;;;;;;;87.13;48.73;;;17.20;99.90;;;;;;6121215;23;20625;-85
2021/06/05 06:22:36;;;;;;;75.73;46.00;;;17.10;99.90;;;;;;6121833;23;20158;-86
2021/06/05 06:25:06;;;;;;;77.43;47.60;;;17.00;99.90;;;;;;6121989;23;20158;-86
2021/06/05 06:27:33;;;;;;;77.53;48.27;;;17.00;99.90;;;;;;6121652;23;20517;-84
2021/06/05 06:30:00;;;;;;;83.60;49.63;;;17.10;99.90;;;;;;6121034;23;20154;-87
2021/06/05 06:32:26;;;;;;;80.73;46.70;;;17.00;99.90;;;;;;6121151;23;20489;-85
2021/06/05 06:34:52;;;;;;;84.30;49.13;;;17.00;99.90;;;;;;6120622;23;20209;-85
2021/06/05 06:37:17;;;;;;;79.17;47.00;;;16.90;99.90;;;;;;6121146;23;20580;-85
2021/06/05 06:39:44;;;;;;;84.70;48.60;;;16.90;99.90;;;;;;6121300;23;20193;-85
2021/06/05 06:42:10;;;;;;;82.43;50.10;;;16.80;99.90;;;;;;6120769;23;20154;-88
2021/06/05 06:44:36;;;;;;;91.53;48.33;;;16.80;99.90;;;;;;6116438;23;20150;-86
2021/06/05 06:47:02;;;;;;;89.70;49.07;;;16.80;99.90;;;;;;6121223;23;20155;-86
2021/06/05 06:49:28;;;;;;;85.30;50.77;;;16.80;99.90;;;;;;6121181;23;20156;-86
2021/06/05 06:51:54;;;;;;;85.40;48.87;;;16.90;99.90;;;;;;6120856;23;20227;-87
2021/06/05 06:54:19;;;;;;;86.53;48.00;;;16.90;99.90;;;;;;6119973;23;20154;-86
2021/06/05 06:56:45;;;;;;;88.97;50.73;;;17.00;99.90;;;;;;6120243;23;20530;-85
2021/06/05 06:59:12;;;;;;;85.30;47.20;;;17.10;99.90;;;;;;6120885;23;20186;-85
2021/06/05 07:01:37;;;;;;;82.00;46.50;;;17.00;99.90;;;;;;6120103;23;20177;-85
2021/06/05 07:04:04;;;;;;;84.07;48.40;;;17.00;99.90;;;;;;6120383;23;20606;-89
2021/06/05 07:06:30;;;;;;;75.30;44.50;;;17.10;99.90;;;;;;6121082;23;20265;-90
2021/06/05 07:08:56;;;;;;;71.50;43.50;;;17.20;99.90;;;;;;6120605;23;20162;-88
2021/06/05 07:11:28;;;;;;;72.90;43.33;;;17.20;99.90;;;;;;6121209;23;20173;-88
2021/06/05 07:13:54;;;;;;;65.03;39.90;;;17.30;99.90;;;;;;6120842;23;20150;-89
2021/06/05 07:16:20;;;;;;;60.07;38.00;;;17.40;99.90;;;;;;6120810;23;20186;-88
2021/06/05 07:18:46;;;;;;;58.60;37.67;;;17.40;99.90;;;;;;6120567;23;20634;-89
2021/06/05 07:21:13;;;;;;;65.30;38.77;;;17.40;99.90;;;;;;6121510;23;20236;-88
2021/06/05 07:23:41;;;;;;;68.07;38.97;;;17.30;99.90;;;;;;6120961;23;20154;-89
2021/06/05 07:26:13;;;;;;;72.37;39.97;;;17.20;99.90;;;;;;6121402;23;20174;-88
2021/06/05 07:28:43;;;;;;;67.23;40.80;;;17.30;99.90;;;;;;6120985;23;20226;-90
2021/06/05 07:31:11;;;;;;;74.13;44.17;;;17.30;99.90;;;;;;6122020;23;20585;-88
2021/06/05 07:33:37;;;;;;;62.60;38.10;;;17.40;99.90;;;;;;6121150;23;20143;-88
2021/06/05 07:36:04;;;;;;;67.77;41.23;;;17.30;99.90;;;;;;6121599;23;20150;-88
2021/06/05 07:38:30;;;;;;;67.77;40.13;;;17.40;99.90;;;;;;6121050;23;20183;-88
2021/06/05 07:40:57;;;;;;;61.27;37.63;;;17.30;99.90;;;;;;6119526;23;20648;-88
2021/06/05 07:43:25;;;;;;;62.80;39.03;;;17.30;99.90;;;;;;6120092;23;20146;-87
2021/06/05 07:45:52;;;;;;;61.90;38.23;;;17.20;99.90;;;;;;6121397;23;20146;-88
2021/06/05 07:48:18;;;;;;;60.67;37.00;;;17.20;99.90;;;;;;6121277;23;20182;-88
2021/06/05 07:50:43;;;;;;;59.93;37.77;;;17.30;99.90;;;;;;6120877;23;20167;-88
2021/06/05 07:53:10;;;;;;;59.97;37.30;;;17.30;99.90;;;;;;6120806;23;20157;-87
2021/06/05 07:55:36;;;;;;;64.07;36.90;;;17.30;99.90;;;;;;6121084;23;20594;-87
2021/06/05 07:58:02;;;;;;;63.00;37.67;;;17.10;99.90;;;;;;6121402;23;20210;-88
2021/06/05 08:00:32;;;;;;;63.00;37.93;;;17.10;99.90;;;;;;6120996;23;20625;-87
2021/06/05 08:02:57;;;;;;;60.13;37.90;;;17.10;99.90;;;;;;6121166;23;20148;-88
2021/06/05 08:05:23;;;;;;;53.70;35.90;;;17.10;99.90;;;;;;6119933;23;20239;-88
2021/06/05 08:07:49;;;;;;;58.07;36.37;;;17.00;99.90;;;;;;6121248;23;20186;-88
2021/06/05 08:10:17;;;;;;;56.37;38.00;;;17.10;99.90;;;;;;6120706;23;20610;-88
2021/06/05 08:12:43;;;;;;;54.20;35.63;;;17.20;99.90;;;;;;6121550;23;20156;-88
2021/06/05 08:15:13;;;;;;;55.00;36.17;;;17.30;99.90;;;;;;6121032;23;20158;-88
2021/06/05 08:17:38;;;;;;;48.03;33.50;;;17.30;99.90;;;;;;6121273;23;20163;-89
2021/06/05 08:20:07;;;;;;;45.67;30.43;;;17.50;99.90;;;;;;6121445;23;20188;-89
2021/06/05 08:22:32;;;;;;;46.80;30.17;;;17.60;99.90;;;;;;6120892;23;20159;-88
2021/06/05 08:24:58;;;;;;;42.70;31.80;;;17.70;99.90;;;;;;6120715;23;20194;-89
2021/06/05 08:27:25;;;;;;;47.93;33.37;;;17.80;99.90;;;;;;6120938;23;20489;-88
2021/06/05 08:29:53;;;;;;;43.40;33.30;;;17.90;99.90;;;;;;6121015;23;20155;-90
2021/06/05 08:32:19;;;;;;;46.57;32.47;;;17.80;99.90;;;;;;6123007;23;20173;-89
2021/06/05 08:34:45;;;;;;;40.90;30.00;;;17.60;99.90;;;;;;6122733;23;20156;-89
2021/06/05 08:37:11;;;;;;;47.13;31.20;;;17.50;99.90;;;;;;6122712;23;20597;-89
2021/06/05 08:39:37;;;;;;;38.83;29.23;;;17.60;99.90;;;;;;6122488;23;20207;-89
2021/06/05 08:42:04;;;;;;;42.73;32.43;;;17.70;99.90;;;;;;6122494;23;20560;-89
2021/06/05 08:44:35;;;;;;;42.00;31.10;;;17.70;99.90;;;;;;6121567;23;20650;-89
2021/06/05 08:47:06;;;;;;;41.53;32.97;;;17.70;99.90;;;;;;6122427;23;20153;-89
2021/06/05 08:49:37;;;;;;;46.67;33.90;;;17.80;99.90;;;;;;6122006;23;20151;-89
2021/06/05 08:52:29;;;;;;;54.93;40.77;;;17.90;99.90;;;;;;6121780;23;20154;-89
2021/06/05 08:54:56;;;;;;;46.57;34.30;;;17.80;99.90;;;;;;6121473;23;20166;-89
2021/06/05 08:57:40;;;;;;;45.87;34.17;;;17.80;99.90;;;;;;6122189;23;20150;-89
2021/06/05 09:00:08;;;;;;;46.53;32.53;;;17.80;99.90;;;;;;6121933;23;20198;-90
2021/06/05 09:02:37;;;;;;;45.40;31.57;;;17.90;99.90;;;;;;6121987;23;20261;-89
2021/06/05 09:05:08;;;;;;;45.70;34.13;;;17.90;99.90;;;;;;6122207;23;20152;-90
2021/06/05 09:07:33;;;;;;;47.30;34.80;;;18.00;99.90;;;;;;6122511;23;20225;-89
2021/06/05 09:09:59;;;;;;;48.40;33.40;;;17.90;99.90;;;;;;6121819;23;20167;-88
2021/06/05 09:12:25;;;;;;;46.27;34.73;;;17.80;99.90;;;;;;6121205;23;20155;-88
2021/06/05 09:14:58;;;;;;;52.53;36.27;;;17.60;99.90;;;;;;6122218;23;20150;-88
2021/06/05 09:17:30;;;;;;;50.70;34.07;;;17.30;99.90;;;;;;6122324;23;20224;-88
2021/06/05 09:20:06;;;;;;;52.67;35.23;;;17.00;99.90;;;;;;6122671;23;20192;-88
2021/06/05 09:22:35;;;;;;;48.70;35.00;;;16.80;99.90;;;;;;6122248;23;20146;-89
2021/06/05 09:25:21;;;;;;;49.50;35.67;;;16.80;99.90;;;;;;6122002;23;20150;-89
2021/06/05 09:27:47;;;;;;;50.83;34.47;;;16.80;99.90;;;;;;6121895;23;20147;-87
2021/06/05 09:30:40;;;;;;;53.13;36.10;;;16.90;99.90;;;;;;6121825;23;20232;-89
2021/06/05 09:33:08;;;;;;;45.70;33.20;;;16.90;99.90;;;;;;6121951;23;20162;-88
2021/06/05 09:35:46;;;;;;;48.80;35.50;;;16.90;99.90;;;;;;6122077;23;20574;-91
2021/06/05 09:38:44;;;;;;;50.37;35.10;;;17.10;99.90;;;;;;6122096;23;20597;-88
2021/06/05 09:41:40;;;;;;;49.27;34.70;;;17.30;99.90;;;;;;6099528;23;20195;-89
2021/06/05 09:44:20;;;;;;;47.60;34.93;;;17.60;99.90;;;;;;6116527;23;20159;-86
2021/06/05 12:43:07;;;;;;;45.30;33.53;;;18.40;99.90;;;;;;6115371;23;21148;-91
2021/06/05 12:45:47;;;;;;;50.70;37.23;;;18.40;99.90;;;;;;6111563;23;20153;-91
2021/06/05 12:48:43;;;;;;;52.63;37.73;;;18.60;99.90;;;;;;6111276;23;20194;-90
2021/06/05 12:51:22;;;;;;;48.33;35.20;;;18.80;99.90;;;;;;6110188;23;20201;-91
2021/06/05 12:54:25;;;;;;;39.13;30.50;;;18.80;99.90;;;;;;6107470;23;20146;-90
2021/06/05 13:12:18;;;;;;;26.77;18.47;;;18.70;99.90;;;;;;5923648;24;20165;-92
2021/06/05 13:34:43;;;;;;;19.30;12.37;;;18.70;99.90;;;;;;6124566;23;20266;-90
2021/06/05 13:37:31;;;;;;;17.63;12.70;;;18.90;99.90;;;;;;6122551;23;20142;-90
2021/06/05 13:40:15;;;;;;;15.70;11.80;;;19.20;99.90;;;;;;6121495;23;20265;-89
2021/06/05 13:42:46;;;;;;;17.03;11.27;;;19.30;99.90;;;;;;6111052;23;20148;-90
2021/06/05 13:45:17;;;;;;;16.03;11.13;;;19.50;99.90;;;;;;6121396;23;20150;-91
2021/06/05 13:47:45;;;;;;;18.80;11.50;;;19.50;99.90;;;;;;6121621;23;20207;-93
2021/06/05 13:50:13;;;;;;;15.53;10.93;;;19.60;99.90;;;;;;6122039;23;20150;-86
2021/06/05 13:52:40;;;;;;;14.50;11.23;;;19.50;99.90;;;;;;6124653;23;20144;-93
2021/06/05 13:55:25;;;;;;;17.13;11.03;;;19.40;99.90;;;;;;6121968;23;20237;-93
2021/06/05 13:57:57;;;;;;;18.07;10.30;;;19.40;99.90;;;;;;6122936;23;20138;-92
2021/06/05 14:00:29;;;;;;;16.47;10.50;;;19.30;99.90;;;;;;6122385;23;20174;-93
2021/06/05 14:02:55;;;;;;;18.97;11.60;;;19.30;99.90;;;;;;6120625;23;20177;-93
2021/06/05 14:05:23;;;;;;;13.70;10.17;;;19.20;99.90;;;;;;6122045;23;20253;-92
2021/06/05 14:07:49;;;;;;;13.67;9.83;;;19.20;99.90;;;;;;6118273;23;20153;-94
2021/06/05 14:10:17;;;;;;;12.20;9.43;;;19.20;99.90;;;;;;6122345;23;20499;-96
2021/06/05 14:12:43;;;;;;;13.50;9.37;;;19.40;99.90;;;;;;6121270;23;20138;-93
2021/06/05 14:15:22;;;;;;;13.40;9.87;;;19.60;99.90;;;;;;6120130;23;20231;-93
2021/06/05 14:17:49;;;;;;;14.20;9.07;;;19.60;99.90;;;;;;6121047;23;20146;-94
2021/06/05 14:20:16;;;;;;;14.47;9.43;;;19.40;99.90;;;;;;6121146;23;20189;-94
2021/06/05 14:22:42;;;;;;;15.40;11.37;;;19.20;99.90;;;;;;6120435;23;20196;-91
2021/06/05 14:25:10;;;;;;;15.77;9.77;;;19.00;99.90;;;;;;6120383;23;20248;-92
2021/06/05 14:27:35;;;;;;;15.10;9.57;;;18.80;99.90;;;;;;6120770;23;20575;-94
2021/06/05 14:30:06;;;;;;;11.63;9.80;;;18.90;99.90;;;;;;6120585;23;20146;-92
2021/06/05 14:32:31;;;;;;;12.20;9.17;;;18.90;99.90;;;;;;6111770;23;20160;-85
2021/06/05 14:34:57;;;;;;;14.13;9.30;;;19.10;99.90;;;;;;6119507;23;20205;-89
2021/06/05 14:37:24;;;;;;;12.77;10.10;;;19.20;99.90;;;;;;6120996;23;20607;-90
2021/06/05 14:39:49;;;;;;;14.13;10.43;;;19.30;99.90;;;;;;6121948;23;20200;-89
2021/06/05 14:42:18;;;;;;;15.97;11.17;;;19.40;99.90;;;;;;6120839;23;20146;-90
2021/06/05 14:44:43;;;;;;;16.47;10.70;;;19.40;99.90;;;;;;6120631;23;20180;-90
2021/06/05 14:47:09;;;;;;;17.17;11.70;;;19.50;99.90;;;;;;6120881;23;20234;-91
2021/06/05 14:49:34;;;;;;;18.10;12.43;;;19.30;99.90;;;;;;6118715;23;20568;-89
2021/06/05 14:52:00;;;;;;;17.33;12.10;;;19.00;99.90;;;;;;6120699;23;20161;-88
2021/06/05 14:54:26;;;;;;;20.87;12.47;;;18.70;99.90;;;;;;6121393;23;20170;-88
2021/06/05 14:56:51;;;;;;;17.10;11.90;;;18.60;99.90;;;;;;6121269;23;20438;-89
2021/06/05 14:59:17;;;;;;;16.10;11.30;;;18.80;99.90;;;;;;6121944;23;20173;-91
2021/06/05 15:01:43;;;;;;;19.23;12.03;;;18.80;99.90;;;;;;6121297;23;20152;-90
2021/06/05 15:04:09;;;;;;;15.37;11.80;;;18.80;99.90;;;;;;6121386;23;20167;-92
2021/06/05 15:06:36;;;;;;;13.23;10.93;;;18.80;99.90;;;;;;6121228;23;20150;-91
2021/06/05 15:09:05;;;;;;;18.27;11.60;;;18.70;99.90;;;;;;6121430;23;20233;-92
2021/06/05 15:11:30;;;;;;;14.80;10.47;;;18.70;99.90;;;;;;6121747;23;20195;-89
2021/06/05 15:13:56;;;;;;;16.20;11.00;;;18.70;99.90;;;;;;6121303;23;20161;-90
2021/06/05 15:16:22;;;;;;;14.20;11.57;;;18.70;99.90;;;;;;6121145;23;20157;-91
2021/06/05 15:18:48;;;;;;;16.27;12.37;;;18.70;99.90;;;;;;6121205;23;20177;-91
2021/06/05 15:21:14;;;;;;;17.37;12.10;;;18.70;99.90;;;;;;6121652;23;20237;-91
2021/06/05 15:23:40;;;;;;;15.93;12.60;;;18.60;99.90;;;;;;6121498;23;20188;-90
2021/06/05 15:26:07;;;;;;;18.20;13.13;;;18.50;99.90;;;;;;6121575;23;20153;-89
2021/06/05 15:28:34;;;;;;;21.67;13.17;;;18.50;99.90;;;;;;6120887;23;20175;-91
2021/06/05 15:30:59;;;;;;;19.20;13.20;;;18.40;99.90;;;;;;6121348;23;20576;-89
2021/06/05 15:33:27;;;;;;;19.37;13.33;;;18.30;99.90;;;;;;6120505;23;20152;-90
2021/06/05 15:35:54;;;;;;;20.17;13.47;;;18.40;99.90;;;;;;6121678;23;20156;-86
2021/06/05 15:38:21;;;;;;;19.63;13.53;;;18.30;99.90;;;;;;6120351;23;20196;-88
2021/06/05 15:40:48;;;;;;;19.13;13.00;;;18.30;99.90;;;;;;6122066;23;20184;-90
2021/06/05 15:43:17;;;;;;;18.33;13.03;;;18.40;99.90;;;;;;6122396;23;20175;-89
2021/06/05 15:45:46;;;;;;;19.73;11.90;;;18.50;99.90;;;;;;6121787;23;20157;-90
2021/06/05 15:48:15;;;;;;;19.67;12.57;;;18.60;99.90;;;;;;6122031;23;20232;-91
2021/06/05 15:50:42;;;;;;;19.50;13.07;;;18.60;99.90;;;;;;6122416;23;20168;-90
2021/06/05 15:53:08;;;;;;;20.33;13.47;;;18.30;99.90;;;;;;6122339;23;20152;-89
2021/06/05 15:55:35;;;;;;;22.10;14.13;;;18.20;99.90;;;;;;6122431;23;20464;-88
2021/06/05 15:58:01;;;;;;;20.67;14.13;;;18.10;99.90;;;;;;6121967;23;20575;-88
2021/06/05 16:00:29;;;;;;;23.70;14.30;;;18.10;99.90;;;;;;6121836;23;20178;-88
2021/06/05 16:02:56;;;;;;;24.30;15.80;;;18.00;99.90;;;;;;6120412;23;20145;-89